Wooster, OH (44691)

3:18 AM EST on March 06, 2015 (GMT -0500)
Max's Place | Change Station
CLOSE
Current Station
Personal Weather Station
Location: Wooster, OH
Elevation: 1135 ft
Nearby Weather Stations

Elev 1135 ft 40.85 °N, 81.96 °W | Updated 8 seconds ago

Partly Cloudy
Partly Cloudy
1.9 °F
Feels Like 2 °F
N
0.0
Wind Variable Wind from NW
Gusts 0.0 mph

Today
High -- | Low -- °F
--% Chance of Precip.
Yesterday
High -- | Low -- °F
Precip. -- in
6:54 AM 6:24 PM
Full, 100% visible
Pressure 30.57 in
Visibility 8.0 miles
Clouds Clear
Windchill 2 °F
Dew Point -1 °F
Humidity 89%
Rainfall in
Snow Depth Not available.
UV 0 out of 12
Pollen .50 out of 12
Air Quality Not available.
Flu Activity Not available.
METAR KBJJ 060756Z AUTO 00000KT 8SM CLR M20/M22 A3049 RMK AO2 SLP351 I1000 T12001217 TSNO

More Conditions Fewer Conditions

Pressure 30.57 in
Visibility 8.0 miles
Clouds Clear
Windchill 2 °F
Dew Point -1 °F
Humidity 89%
Rainfall in
Snow Depth Not available.
UV 0 out of 12
Pollen .50 out of 12
Air Quality Not available.
Flu Activity Not available.
METAR KBJJ 060756Z AUTO 00000KT 8SM CLR M20/M22 A3049 RMK AO2 SLP351 I1000 T12001217 TSNO

More Conditions Fewer Conditions

10-Day Weather Forecast

Almanac

Astronomy

Mar. 06, 2015 Rise Set
Actual Time
Civil Twilight
Nautical Twilight
Astronomical Twilight
Moon
Length of Visible Light
Length of Day
Tomorrow will be .
, % of the Moon is Illuminated

Today's Extremes

State Highs State Lows

Community

WunderPhotos

Upload Photos

1,803,204 photos uploaded!

WunderBlogs® & News

Nearby

Air Quality

  Air Quality AQ Index Pollutant
Not available.

Snow Depth

Station Depth Elevation

Earthquake Activity

City Distance Mag. Time & Date
Minimum magnitude displayed is 2.5.

Coastal Water Temperatures

Place Temperature

Nearby Weather Stations